Terminal Aerodrome Forecast
Issued by NWS

Home | Current Version | Previous Version | Text Only | Print | Product List | Glossary On
Versions: 1 2 3 4 5 6 7 8 9 10 11 12 13 14 15 16
000
FTUS46 KPDT 300537
TAFDLS
TAF
KDLS 300537Z 3006/3106 30008KT P6SM BKN080
     FM301200 29007KT P6SM -RA OVC050
     FM301800 VRB06KT P6SM SCT050 BKN080
      TEMPO 3018/3022 -RA BKN050 BKN080
     FM302200 30015G25KT P6SM SCT080
     FM310200 30012G22KT P6SM SCT100=

USA.gov is the U.S. government's official web portal to all federal, state and local government web resources and services.